createdAt,value
2023-05-05T00:00:02.507Z,110.05
2023-05-05T00:01:02.496Z,110.68
2023-05-05T00:02:02.488Z,114.37
2023-05-05T00:03:02.547Z,109.62
2023-05-05T00:04:02.425Z,105.45
2023-05-05T00:05:02.381Z,109.21
2023-05-05T00:06:02.370Z,115.14
2023-05-05T00:07:02.334Z,107.36
2023-05-05T00:08:02.298Z,109.35
2023-05-05T00:09:02.354Z,112.24
2023-05-05T00:10:02.236Z,108.98
2023-05-05T00:11:02.235Z,103.21
2023-05-05T00:12:02.205Z,108.57
2023-05-05T00:13:02.231Z,104.00
2023-05-05T00:14:02.124Z,108.44
2023-05-05T00:15:02.147Z,107.08
2023-05-05T00:16:02.101Z,107.48
2023-05-05T00:17:02.104Z,106.22
2023-05-05T00:18:02.117Z,104.97
2023-05-05T00:19:01.989Z,106.73
2023-05-05T00:20:02.000Z,111.83
2023-05-05T00:21:01.968Z,109.53
2023-05-05T00:22:01.919Z,105.69
2023-05-05T00:23:01.944Z,109.81
2023-05-05T00:24:01.891Z,111.10
2023-05-05T00:25:01.860Z,110.21
2023-05-05T00:26:01.828Z,109.41
2023-05-05T00:27:01.808Z,109.32
2023-05-05T00:28:01.804Z,115.50
2023-05-05T00:29:01.800Z,107.99
2023-05-05T00:30:01.767Z,112.57
2023-05-05T00:31:01.889Z,107.25
2023-05-05T00:32:01.694Z,113.39
2023-05-05T00:33:01.870Z,107.07
2023-05-05T00:34:01.637Z,110.24
2023-05-05T00:35:01.644Z,108.50
2023-05-05T00:36:01.640Z,105.95
2023-05-05T00:37:01.592Z,107.53
2023-05-05T00:38:01.543Z,108.78
2023-05-05T00:39:01.509Z,116.91
2023-05-05T00:40:01.507Z,110.36
2023-05-05T00:41:01.471Z,112.57
2023-05-05T00:42:01.452Z,111.70
2023-05-05T00:43:01.430Z,111.32
2023-05-05T00:44:01.437Z,102.60
2023-05-05T00:45:01.380Z,109.92
2023-05-05T00:46:01.377Z,101.78
2023-05-05T00:47:01.319Z,114.07
2023-05-05T00:48:01.485Z,101.77
2023-05-05T00:49:01.340Z,96.94
2023-05-05T00:50:01.284Z,108.44
2023-05-05T00:51:01.247Z,111.02
2023-05-05T00:52:01.261Z,102.92
2023-05-05T00:53:01.245Z,101.04
2023-05-05T00:54:01.194Z,107.44
2023-05-05T00:55:01.155Z,118.61
2023-05-05T00:56:01.171Z,104.87
2023-05-05T00:57:01.117Z,97.61
2023-05-05T00:58:01.086Z,98.26
2023-05-05T00:59:01.086Z,109.35
2023-05-05T01:00:01.033Z,107.26
2023-05-05T01:01:01.013Z,105.17
2023-05-05T01:02:01.049Z,103.56
2023-05-05T01:03:01.019Z,108.06
2023-05-05T01:04:00.973Z,102.20
2023-05-05T01:05:00.918Z,105.77
2023-05-05T01:06:00.892Z,112.89
2023-05-05T01:07:00.880Z,110.65
2023-05-05T01:08:00.828Z,110.24
2023-05-05T01:09:00.794Z,114.93
2023-05-05T01:10:15.196Z,104.28
2023-05-05T01:11:01.753Z,104.66
2023-05-05T01:12:00.675Z,105.74
2023-05-05T01:13:00.719Z,103.92
2023-05-05T01:14:00.596Z,100.97
2023-05-05T01:15:00.533Z,106.68
2023-05-05T01:16:00.522Z,105.68
2023-05-05T01:17:00.413Z,105.80
2023-05-05T01:18:00.417Z,106.51
2023-05-05T01:19:00.277Z,108.01
2023-05-05T01:20:00.244Z,108.13
2023-05-05T01:21:00.183Z,104.22
2023-05-05T01:22:00.137Z,111.19
2023-05-05T01:23:00.055Z,108.47
2023-05-05T01:24:00.034Z,103.90
2023-05-05T01:24:59.953Z,106.53
2023-05-05T01:25:59.906Z,115.02
2023-05-05T01:26:59.874Z,115.86
2023-05-05T01:27:59.870Z,102.05
2023-05-05T01:28:59.841Z,113.17
2023-05-05T01:29:59.802Z,104.71
2023-05-05T01:30:59.824Z,110.88
2023-05-05T01:31:59.869Z,115.31
2023-05-05T01:32:59.848Z,99.36
2023-05-05T01:33:59.751Z,109.96
2023-05-05T01:34:59.746Z,105.34
2023-05-05T01:35:59.712Z,105.80
2023-05-05T01:36:59.716Z,111.50
2023-05-05T01:37:59.695Z,108.96
2023-05-05T01:38:59.664Z,114.82
2023-05-05T01:39:59.646Z,110.20
2023-05-05T01:40:59.654Z,105.04
2023-05-05T01:41:59.647Z,108.39
2023-05-05T01:42:59.631Z,102.46
2023-05-05T01:43:59.622Z,108.01
2023-05-05T01:44:59.598Z,100.77
2023-05-05T01:45:59.635Z,105.66
2023-05-05T01:46:59.553Z,111.56
2023-05-05T01:47:59.559Z,105.49
2023-05-05T01:48:59.609Z,108.07
2023-05-05T01:49:59.509Z,112.24
2023-05-05T01:50:59.520Z,85.36
2023-05-05T01:51:59.486Z,97.46
2023-05-05T01:52:59.468Z,98.83
2023-05-05T01:53:59.458Z,100.72
2023-05-05T01:54:59.418Z,112.74
2023-05-05T01:55:59.406Z,100.93
2023-05-05T01:56:59.394Z,109.09
2023-05-05T01:57:59.427Z,112.61
2023-05-05T01:58:59.395Z,106.74
2023-05-05T01:59:59.390Z,96.43
2023-05-05T02:00:59.401Z,100.05
2023-05-05T02:01:59.362Z,101.15
2023-05-05T02:02:59.424Z,97.66
2023-05-05T02:03:59.379Z,100.79
2023-05-05T02:04:59.358Z,94.93
2023-05-05T02:05:59.328Z,99.97
2023-05-05T02:06:59.313Z,94.44
2023-05-05T02:07:59.292Z,93.86
2023-05-05T02:08:59.290Z,77.96
2023-05-05T02:09:59.295Z,99.50
2023-05-05T02:10:59.281Z,99.14
2023-05-05T02:11:59.274Z,89.41
2023-05-05T02:12:59.266Z,101.59
2023-05-05T02:13:59.308Z,99.00
2023-05-05T02:14:59.237Z,98.68
2023-05-05T02:15:59.287Z,101.67
2023-05-05T02:16:59.240Z,106.65
2023-05-05T02:17:59.322Z,96.92
2023-05-05T02:18:59.226Z,83.72
2023-05-05T02:19:59.240Z,84.87
2023-05-05T02:20:59.220Z,96.24
2023-05-05T02:21:59.192Z,97.57
2023-05-05T02:22:59.209Z,83.42
2023-05-05T02:23:59.172Z,95.78
2023-05-05T02:24:59.181Z,90.77
2023-05-05T02:25:59.172Z,98.65
2023-05-05T02:26:59.150Z,108.22
2023-05-05T02:27:59.146Z,98.37
2023-05-05T02:28:59.125Z,87.24
2023-05-05T02:29:59.156Z,89.39
2023-05-05T02:30:59.168Z,96.46
2023-05-05T02:31:59.126Z,98.30
2023-05-05T02:32:59.172Z,99.40
2023-05-05T02:33:59.142Z,90.16
2023-05-05T02:34:59.101Z,100.16
2023-05-05T02:35:59.113Z,94.17
2023-05-05T02:36:59.103Z,105.91
2023-05-05T02:37:59.102Z,104.87
2023-05-05T02:38:59.094Z,99.51
2023-05-05T02:39:59.170Z,106.74
2023-05-05T02:40:59.104Z,101.86
2023-05-05T02:41:59.068Z,100.96
2023-05-05T02:42:59.096Z,100.00
2023-05-05T02:43:59.100Z,93.20
2023-05-05T02:44:59.057Z,97.19
2023-05-05T02:45:59.084Z,95.35
2023-05-05T02:46:59.062Z,89.63
2023-05-05T02:47:59.150Z,93.46
2023-05-05T02:48:59.092Z,102.65
2023-05-05T02:49:59.042Z,102.53
2023-05-05T02:50:59.077Z,100.07
2023-05-05T02:51:59.041Z,90.10
2023-05-05T02:52:59.051Z,93.50
2023-05-05T02:53:59.031Z,107.57
2023-05-05T02:54:59.008Z,99.75
2023-05-05T02:55:59.042Z,106.58
2023-05-05T02:56:59.011Z,103.42
2023-05-05T02:57:58.979Z,105.14
2023-05-05T02:58:59.019Z,108.17
2023-05-05T02:59:59.002Z,97.83
2023-05-05T03:00:59.000Z,82.76
2023-05-05T03:01:59.121Z,93.43
2023-05-05T03:02:59.089Z,99.32
2023-05-05T03:03:59.064Z,98.44
2023-05-05T03:04:58.968Z,96.91
2023-05-05T03:05:58.983Z,96.29
2023-05-05T03:06:58.948Z,93.76
2023-05-05T03:07:58.953Z,86.43
2023-05-05T03:08:58.957Z,95.77
2023-05-05T03:09:58.925Z,99.74
2023-05-05T03:10:58.914Z,96.68
2023-05-05T03:11:58.950Z,86.62
2023-05-05T03:12:58.993Z,81.17
2023-05-05T03:13:58.910Z,100.17
2023-05-05T03:14:58.929Z,98.75
2023-05-05T03:15:59.001Z,104.43
2023-05-05T03:16:58.939Z,100.41
2023-05-05T03:17:58.951Z,89.21
2023-05-05T03:18:58.932Z,99.20
2023-05-05T03:19:59.236Z,82.24
2023-05-05T03:20:58.893Z,93.20
2023-05-05T03:21:58.890Z,96.61
2023-05-05T03:22:58.884Z,91.75
2023-05-05T03:23:58.886Z,95.73
2023-05-05T03:24:58.897Z,96.01
2023-05-05T03:25:58.937Z,100.30
2023-05-05T03:26:58.896Z,91.25
2023-05-05T03:27:58.901Z,95.97
2023-05-05T03:28:58.934Z,92.46
2023-05-05T03:29:58.914Z,91.98
2023-05-05T03:30:58.925Z,92.56
2023-05-05T03:31:58.952Z,94.63
2023-05-05T03:32:58.966Z,87.73
2023-05-05T03:33:58.931Z,89.39
2023-05-05T03:34:58.985Z,100.22
2023-05-05T03:35:58.991Z,108.44
2023-05-05T03:36:58.967Z,102.37
2023-05-05T03:37:59.001Z,87.71
2023-05-05T03:38:58.965Z,86.57
2023-05-05T03:39:59.018Z,105.36
2023-05-05T03:40:58.996Z,86.37
2023-05-05T03:41:58.997Z,92.43
2023-05-05T03:42:59.018Z,93.26
2023-05-05T03:43:59.032Z,95.89
2023-05-05T03:44:59.018Z,106.73
2023-05-05T03:45:59.063Z,95.69
2023-05-05T03:46:59.040Z,95.38
2023-05-05T03:47:59.049Z,102.50
2023-05-05T03:48:59.025Z,92.95
2023-05-05T03:49:59.017Z,96.65
2023-05-05T03:50:59.046Z,108.56
2023-05-05T03:51:59.044Z,92.68
2023-05-05T03:52:59.049Z,83.76
2023-05-05T03:53:59.056Z,99.57
2023-05-05T03:54:59.056Z,106.86
2023-05-05T03:55:59.060Z,108.56
2023-05-05T03:56:59.098Z,108.49
2023-05-05T03:57:59.077Z,111.86
2023-05-05T03:58:59.037Z,93.13
2023-05-05T03:59:59.044Z,88.45
2023-05-05T04:00:59.102Z,94.08
2023-05-05T04:01:59.094Z,102.64
2023-05-05T04:02:59.170Z,97.01
2023-05-05T04:03:59.092Z,106.65
2023-05-05T04:04:59.056Z,106.74
2023-05-05T04:05:59.060Z,106.13
2023-05-05T04:06:59.065Z,107.00
2023-05-05T04:07:59.089Z,101.84
2023-05-05T04:08:59.071Z,105.70
2023-05-05T04:09:59.105Z,103.82
2023-05-05T04:10:59.072Z,95.83
2023-05-05T04:11:59.083Z,107.60
2023-05-05T04:12:59.105Z,103.53
2023-05-05T04:13:59.072Z,106.38
2023-05-05T04:14:59.116Z,115.19
2023-05-05T04:15:59.150Z,108.34
2023-05-05T04:16:59.096Z,115.03
2023-05-05T04:17:59.153Z,105.60
2023-05-05T04:18:59.135Z,99.36
2023-05-05T04:19:59.117Z,96.44
2023-05-05T04:20:59.126Z,106.85
2023-05-05T04:21:59.131Z,103.40
2023-05-05T04:22:59.126Z,100.14
2023-05-05T04:23:59.121Z,102.47
2023-05-05T04:24:59.133Z,103.36
2023-05-05T04:25:59.144Z,101.09
2023-05-05T04:26:59.125Z,95.57
2023-05-05T04:27:59.157Z,94.25
2023-05-05T04:28:59.149Z,97.40
2023-05-05T04:29:59.169Z,92.21
2023-05-05T04:30:59.178Z,88.73
2023-05-05T04:31:59.163Z,94.56
2023-05-05T04:32:59.188Z,96.39
2023-05-05T04:33:59.137Z,84.39
2023-05-05T04:34:59.157Z,96.42
2023-05-05T04:35:59.157Z,103.95
2023-05-05T04:36:59.145Z,107.90
2023-05-05T04:37:59.141Z,97.72
2023-05-05T04:38:59.179Z,106.77
2023-05-05T04:39:59.149Z,101.26
2023-05-05T04:40:59.153Z,99.15
2023-05-05T04:41:59.153Z,110.13
2023-05-05T04:42:59.141Z,114.05
2023-05-05T04:43:59.170Z,107.13
2023-05-05T04:44:59.149Z,106.01
2023-05-05T04:45:59.168Z,108.12
2023-05-05T04:46:59.149Z,109.41
2023-05-05T04:47:59.153Z,109.60
2023-05-05T04:48:59.131Z,109.31
2023-05-05T04:49:59.179Z,100.19
2023-05-05T04:50:59.116Z,100.30
2023-05-05T04:51:59.145Z,103.88
2023-05-05T04:52:59.153Z,108.65
2023-05-05T04:53:59.137Z,106.95
2023-05-05T04:54:59.109Z,113.39
2023-05-05T04:55:59.130Z,114.16
2023-05-05T04:56:59.104Z,116.15
2023-05-05T04:57:59.060Z,116.43
2023-05-05T04:58:59.002Z,122.02
2023-05-05T04:59:59.013Z,119.68
2023-05-05T05:00:58.985Z,124.63
2023-05-05T05:01:59.024Z,126.41
2023-05-05T05:02:58.999Z,126.66
2023-05-05T05:03:59.046Z,131.32
2023-05-05T05:04:58.914Z,134.35
2023-05-05T05:05:58.896Z,127.47
2023-05-05T05:06:59.350Z,136.38
2023-05-05T05:07:58.920Z,134.50
2023-05-05T05:08:58.880Z,136.84
2023-05-05T05:09:58.920Z,142.43
2023-05-05T05:10:58.887Z,143.10
2023-05-05T05:11:58.890Z,142.09
2023-05-05T05:12:58.946Z,144.71
2023-05-05T05:13:58.900Z,144.91
2023-05-05T05:14:58.907Z,148.24
2023-05-05T05:15:58.941Z,149.76
2023-05-05T05:16:58.915Z,151.37
2023-05-05T05:17:58.974Z,153.63
2023-05-05T05:19:00.930Z,157.36
2023-05-05T05:19:58.872Z,155.33
2023-05-05T05:20:58.787Z,157.28
2023-05-05T05:21:58.765Z,157.34
2023-05-05T05:22:58.713Z,160.94
2023-05-05T05:23:58.676Z,161.78
2023-05-05T05:24:58.618Z,160.52
2023-05-05T05:25:58.588Z,164.54
2023-05-05T05:26:58.525Z,167.22
2023-05-05T05:28:09.009Z,166.45
2023-05-05T05:28:59.399Z,166.88
2023-05-05T05:29:58.389Z,167.79
2023-05-05T05:30:58.327Z,169.84
2023-05-05T05:31:58.318Z,171.52
2023-05-05T05:32:58.253Z,175.07
2023-05-05T05:33:58.168Z,175.10
2023-05-05T05:34:58.114Z,175.66
2023-05-05T05:35:58.059Z,178.27
2023-05-05T05:36:58.022Z,180.60
2023-05-05T05:37:57.969Z,180.90
2023-05-05T05:38:57.874Z,175.92
2023-05-05T05:39:57.832Z,181.14
2023-05-05T05:40:57.793Z,182.69
2023-05-05T05:41:57.803Z,174.94
2023-05-05T05:42:57.803Z,184.06
2023-05-05T05:43:57.831Z,182.03
2023-05-05T05:44:57.876Z,182.15
2023-05-05T05:45:57.857Z,190.64
2023-05-05T05:46:57.943Z,194.92
2023-05-05T05:47:57.802Z,200.76
2023-05-05T05:48:57.800Z,213.68
2023-05-05T05:49:57.771Z,215.97
2023-05-05T05:50:57.825Z,216.65
2023-05-05T05:51:57.908Z,224.84
2023-05-05T05:52:57.799Z,227.47
2023-05-05T05:53:58.959Z,233.14
2023-05-05T05:54:57.838Z,238.64
2023-05-05T05:55:57.833Z,244.09
2023-05-05T05:56:57.863Z,238.96
2023-05-05T05:57:57.854Z,248.42
2023-05-05T05:58:57.829Z,240.65
2023-05-05T05:59:58.810Z,240.26
2023-05-05T06:00:57.875Z,242.78
2023-05-05T06:01:57.872Z,245.87
2023-05-05T06:02:57.907Z,241.64
2023-05-05T06:03:57.874Z,248.78
2023-05-05T06:04:57.791Z,246.21
2023-05-05T06:05:57.807Z,248.72
2023-05-05T06:06:57.980Z,246.88
2023-05-05T06:07:57.784Z,244.83
2023-05-05T06:08:57.724Z,246.37
2023-05-05T06:09:57.703Z,245.45
2023-05-05T06:10:57.692Z,248.90
2023-05-05T06:11:57.962Z,247.95
2023-05-05T06:12:57.673Z,247.58
2023-05-05T06:13:57.642Z,247.88
2023-05-05T06:14:57.633Z,248.00
2023-05-05T06:15:57.690Z,246.84
2023-05-05T06:16:57.630Z,244.02
2023-05-05T06:17:57.631Z,244.63
2023-05-05T06:18:57.574Z,243.80
2023-05-05T06:19:57.530Z,245.90
2023-05-05T06:20:57.514Z,246.39
2023-05-05T06:21:57.535Z,243.98
2023-05-05T06:22:57.511Z,243.35
2023-05-05T06:23:57.526Z,236.42
2023-05-05T06:24:57.464Z,241.56
2023-05-05T06:25:57.474Z,242.28
2023-05-05T06:26:57.434Z,241.25
2023-05-05T06:27:57.426Z,243.85
2023-05-05T06:28:57.398Z,245.00
2023-05-05T06:29:57.383Z,242.98
2023-05-05T06:30:57.351Z,242.55
2023-05-05T06:31:57.361Z,241.05
2023-05-05T06:32:57.381Z,243.10
2023-05-05T06:33:57.335Z,240.36
2023-05-05T06:34:57.331Z,238.68
2023-05-05T06:35:57.299Z,244.45
2023-05-05T06:36:57.440Z,237.48
2023-05-05T06:37:57.250Z,233.03
2023-05-05T06:38:57.223Z,229.70
2023-05-05T06:39:57.205Z,233.59
2023-05-05T06:40:57.236Z,237.34
2023-05-05T06:41:57.212Z,243.49
2023-05-05T06:42:57.212Z,249.87
2023-05-05T06:43:57.167Z,250.00
2023-05-05T06:44:57.171Z,248.02
2023-05-05T06:45:57.217Z,238.59
2023-05-05T06:46:57.491Z,237.56
2023-05-05T06:47:57.245Z,242.52
2023-05-05T06:48:57.242Z,239.91
2023-05-05T06:49:57.192Z,247.49
2023-05-05T06:50:57.123Z,239.55
2023-05-05T06:51:57.113Z,237.71
2023-05-05T06:52:57.102Z,231.86
2023-05-05T06:53:57.949Z,245.83
2023-05-05T06:54:57.076Z,246.08
2023-05-05T06:55:57.061Z,250.00
2023-05-05T06:56:59.318Z,245.27
2023-05-05T06:57:57.112Z,246.53
2023-05-05T06:58:57.160Z,241.10
2023-05-05T06:59:57.103Z,245.74
2023-05-05T07:00:57.083Z,245.78
2023-05-05T07:01:57.466Z,248.89
2023-05-05T07:02:57.106Z,235.43
2023-05-05T07:03:57.133Z,235.80
2023-05-05T07:04:57.111Z,244.12
2023-05-05T07:05:57.039Z,244.28
2023-05-05T07:06:57.487Z,245.26
2023-05-05T07:07:57.051Z,245.25
2023-05-05T07:08:57.018Z,250.00
2023-05-05T07:09:57.050Z,239.26
2023-05-05T07:10:57.077Z,238.00
2023-05-05T07:11:57.063Z,238.35
2023-05-05T07:12:57.099Z,233.60
2023-05-05T07:13:57.088Z,237.36
2023-05-05T07:14:57.055Z,230.78
2023-05-05T07:15:57.088Z,226.85
2023-05-05T07:16:57.080Z,231.20
2023-05-05T07:17:57.163Z,233.07
2023-05-05T07:18:57.034Z,233.15
2023-05-05T07:19:57.052Z,237.92
2023-05-05T07:20:57.157Z,231.03
2023-05-05T07:21:57.084Z,233.60
2023-05-05T07:22:57.092Z,232.29
2023-05-05T07:23:57.126Z,236.61
2023-05-05T07:24:57.137Z,239.09
2023-05-05T07:25:57.134Z,233.10
2023-05-05T07:26:57.089Z,236.86
2023-05-05T07:27:57.137Z,241.42
2023-05-05T07:28:57.137Z,240.95
2023-05-05T07:29:57.159Z,225.84
2023-05-05T07:30:57.178Z,228.71
2023-05-05T07:31:57.252Z,233.59
2023-05-05T07:32:57.268Z,230.09
2023-05-05T07:33:57.209Z,231.30
2023-05-05T07:34:57.222Z,235.13
2023-05-05T07:35:57.250Z,226.94
2023-05-05T07:36:57.318Z,233.15
2023-05-05T07:37:57.264Z,230.32
2023-05-05T07:38:57.273Z,226.67
2023-05-05T07:39:57.286Z,234.37
2023-05-05T07:40:57.296Z,227.68
2023-05-05T07:41:57.486Z,233.80
2023-05-05T07:42:57.324Z,230.13
2023-05-05T07:43:57.504Z,232.86
2023-05-05T07:44:57.297Z,233.27
2023-05-05T07:45:57.321Z,230.30
2023-05-05T07:46:57.500Z,218.23
2023-05-05T07:47:57.436Z,217.69
2023-05-05T07:48:57.393Z,227.06
2023-05-05T07:49:57.390Z,227.26
2023-05-05T07:50:57.375Z,224.66
2023-05-05T07:51:57.387Z,229.96
2023-05-05T07:53:10.777Z,233.57
2023-05-05T07:53:58.308Z,226.09
2023-05-05T07:54:57.253Z,223.16
2023-05-05T07:55:57.221Z,224.48
2023-05-05T07:56:57.161Z,222.01
2023-05-05T07:57:57.096Z,229.67
2023-05-05T07:58:57.059Z,220.51
2023-05-05T07:59:57.005Z,230.35
2023-05-05T08:00:56.940Z,230.22
2023-05-05T08:01:56.914Z,228.65
2023-05-05T08:02:56.907Z,222.55
2023-05-05T08:03:56.865Z,224.58
2023-05-05T08:04:56.752Z,223.98
2023-05-05T08:05:56.748Z,223.55
2023-05-05T08:06:56.716Z,221.46
2023-05-05T08:07:56.683Z,220.72
2023-05-05T08:08:56.803Z,184.56
2023-05-05T08:09:56.695Z,206.35
2023-05-05T08:10:56.661Z,208.86
2023-05-05T08:11:56.714Z,215.82
2023-05-05T08:12:56.723Z,208.55
2023-05-05T08:13:56.655Z,205.69
2023-05-05T08:14:56.653Z,207.22
2023-05-05T08:15:56.665Z,205.85
2023-05-05T08:16:56.640Z,205.40
2023-05-05T08:17:56.660Z,208.49
2023-05-05T08:18:56.573Z,207.01
2023-05-05T08:19:56.579Z,207.21
2023-05-05T08:20:56.554Z,209.38
2023-05-05T08:21:56.524Z,207.26
2023-05-05T08:22:56.545Z,215.09
2023-05-05T08:23:56.531Z,214.20
2023-05-05T08:24:56.616Z,216.93
2023-05-05T08:25:56.556Z,220.26
2023-05-05T08:26:56.508Z,219.00
2023-05-05T08:27:56.519Z,225.66
2023-05-05T08:28:56.537Z,222.26
2023-05-05T08:29:56.570Z,214.41
2023-05-05T08:30:56.521Z,218.11
2023-05-05T08:31:56.559Z,211.21
2023-05-05T08:32:56.693Z,218.90
2023-05-05T08:33:56.542Z,216.57
2023-05-05T08:34:56.542Z,211.85
2023-05-05T08:35:56.565Z,198.14
2023-05-05T08:36:56.575Z,207.98
2023-05-05T08:37:59.103Z,227.75
2023-05-05T08:38:56.533Z,235.91
2023-05-05T08:39:56.503Z,236.60
2023-05-05T08:40:56.510Z,228.96
2023-05-05T08:41:56.402Z,224.42
2023-05-05T08:42:56.353Z,222.01
2023-05-05T08:43:56.276Z,224.44
2023-05-05T08:44:57.292Z,228.88
2023-05-05T08:45:56.376Z,229.01
2023-05-05T08:46:56.385Z,229.49
2023-05-05T08:47:56.482Z,233.33
2023-05-05T08:48:56.294Z,238.39
2023-05-05T08:49:56.263Z,245.22
2023-05-05T08:50:57.310Z,245.16
2023-05-05T08:51:56.220Z,249.15
2023-05-05T08:52:56.298Z,249.73
2023-05-05T08:53:56.241Z,247.08
2023-05-05T08:54:56.253Z,242.18
2023-05-05T08:55:56.205Z,240.41
2023-05-05T08:56:56.344Z,234.57
2023-05-05T08:57:56.142Z,239.63
2023-05-05T08:58:56.140Z,237.26
2023-05-05T08:59:56.126Z,236.54
2023-05-05T09:00:56.080Z,234.27
2023-05-05T09:01:56.010Z,229.88
2023-05-05T09:02:56.017Z,225.53
2023-05-05T09:03:55.955Z,226.63
2023-05-05T09:04:55.930Z,226.42
2023-05-05T09:05:55.873Z,222.05
2023-05-05T09:06:55.807Z,224.42
2023-05-05T09:07:56.030Z,225.56
2023-05-05T09:08:57.601Z,222.44
2023-05-05T09:09:55.718Z,223.65
2023-05-05T09:10:55.660Z,225.63
2023-05-05T09:11:55.614Z,221.59
2023-05-05T09:12:55.656Z,218.68
2023-05-05T09:13:55.480Z,218.77
2023-05-05T09:14:57.266Z,215.47
2023-05-05T09:15:55.399Z,215.77
2023-05-05T09:16:55.396Z,216.28
2023-05-05T09:17:55.303Z,217.91
2023-05-05T09:18:55.245Z,224.43
2023-05-05T09:19:55.232Z,220.40
2023-05-05T09:20:56.053Z,221.94
2023-05-05T09:21:55.075Z,222.02
2023-05-05T09:22:55.013Z,219.99
2023-05-05T09:23:55.960Z,215.62
2023-05-05T09:24:54.943Z,215.27
2023-05-05T09:25:54.890Z,215.76
2023-05-05T09:26:54.799Z,210.03
2023-05-05T09:27:55.017Z,216.02
2023-05-05T09:28:54.806Z,215.46
2023-05-05T09:29:54.746Z,210.78
2023-05-05T09:30:54.671Z,215.43
2023-05-05T09:31:54.561Z,227.13
2023-05-05T09:32:54.703Z,219.32
2023-05-05T09:33:54.484Z,212.41
2023-05-05T09:34:54.443Z,207.85
2023-05-05T09:35:54.386Z,204.92
2023-05-05T09:36:54.353Z,205.96
2023-05-05T09:37:54.317Z,198.80
2023-05-05T09:38:54.234Z,195.09
2023-05-05T09:39:54.213Z,207.37
2023-05-05T09:40:54.243Z,190.83
2023-05-05T09:41:54.125Z,175.86
2023-05-05T09:42:54.503Z,184.99
2023-05-05T09:43:54.083Z,198.59
2023-05-05T09:44:54.255Z,209.99
2023-05-05T09:45:54.165Z,211.30
2023-05-05T09:46:54.085Z,208.08
2023-05-05T09:47:59.109Z,215.19
2023-05-05T09:48:55.039Z,215.34
2023-05-05T09:49:53.938Z,213.57
2023-05-05T09:50:53.917Z,208.20
2023-05-05T09:51:53.890Z,210.94
2023-05-05T09:52:53.838Z,216.08
2023-05-05T09:53:53.748Z,217.96
2023-05-05T09:54:53.742Z,220.87
2023-05-05T09:55:53.671Z,219.45
2023-05-05T09:56:53.647Z,219.81
2023-05-05T09:57:54.020Z,216.34
2023-05-05T09:58:53.693Z,219.05
2023-05-05T09:59:53.673Z,215.56
2023-05-05T10:00:53.688Z,211.82
2023-05-05T10:01:53.819Z,213.24
2023-05-05T10:02:53.782Z,206.58
2023-05-05T10:03:53.766Z,214.43
2023-05-05T10:04:53.832Z,215.83
2023-05-05T10:05:53.792Z,216.49
2023-05-05T10:06:53.815Z,216.72
2023-05-05T10:07:54.047Z,215.43
2023-05-05T10:08:53.866Z,209.36
2023-05-05T10:09:53.879Z,216.05
2023-05-05T10:10:53.878Z,213.17
2023-05-05T10:11:53.912Z,215.80
2023-05-05T10:12:53.944Z,215.80
2023-05-05T10:13:53.883Z,207.41
2023-05-05T10:14:53.895Z,208.57
2023-05-05T10:15:54.075Z,209.66
2023-05-05T10:16:54.021Z,214.17
2023-05-05T10:18:06.209Z,221.32
2023-05-05T10:18:54.911Z,221.35
2023-05-05T10:19:53.839Z,221.42
2023-05-05T10:20:53.803Z,218.37
2023-05-05T10:21:53.704Z,216.47
2023-05-05T10:22:53.699Z,216.57
2023-05-05T10:23:53.634Z,216.94
2023-05-05T10:24:53.564Z,219.61
2023-05-05T10:25:53.602Z,214.95
2023-05-05T10:26:53.494Z,216.60
2023-05-05T10:27:53.535Z,215.73
2023-05-05T10:28:53.508Z,213.56
2023-05-05T10:30:00.563Z,212.92
2023-05-05T10:30:53.496Z,213.14
2023-05-05T10:31:53.480Z,167.02
2023-05-05T10:33:03.581Z,174.39
2023-05-05T10:33:54.421Z,193.92
2023-05-05T10:34:53.283Z,208.16
2023-05-05T10:35:53.245Z,213.97
2023-05-05T10:36:53.165Z,211.99
2023-05-05T10:37:53.161Z,221.90
2023-05-05T10:38:53.111Z,248.14
2023-05-05T10:39:53.017Z,250.00
2023-05-05T10:40:52.984Z,248.78
2023-05-05T10:41:52.929Z,248.30
2023-05-05T10:42:52.870Z,248.06
2023-05-05T10:43:52.851Z,248.05
2023-05-05T10:44:52.803Z,249.69
2023-05-05T10:45:52.801Z,248.56
2023-05-05T10:46:52.683Z,234.24
2023-05-05T10:47:52.730Z,225.97
2023-05-05T10:48:52.796Z,218.65
2023-05-05T10:49:52.692Z,218.43
2023-05-05T10:50:52.639Z,227.11
2023-05-05T10:51:52.624Z,227.69
2023-05-05T10:52:52.636Z,230.35
2023-05-05T10:53:52.669Z,248.30
2023-05-05T10:54:52.577Z,247.70
2023-05-05T10:55:52.616Z,250.00
2023-05-05T10:56:52.628Z,250.00
2023-05-05T10:57:52.593Z,249.79
2023-05-05T10:58:59.730Z,239.16
2023-05-05T10:59:53.550Z,227.17
2023-05-05T11:00:52.571Z,216.31
2023-05-05T11:01:52.434Z,214.11
2023-05-05T11:02:52.422Z,221.90
2023-05-05T11:03:52.356Z,225.20
2023-05-05T11:04:52.229Z,224.31
2023-05-05T11:05:59.227Z,224.31
2023-05-05T11:06:52.164Z,224.55
2023-05-05T11:07:52.118Z,225.81
2023-05-05T11:08:52.034Z,229.54
2023-05-05T11:09:51.986Z,230.69
2023-05-05T11:10:51.944Z,241.06
2023-05-05T11:11:58.853Z,235.15
2023-05-05T11:12:51.910Z,235.50
2023-05-05T11:13:51.785Z,223.11
2023-05-05T11:14:52.624Z,213.58
2023-05-05T11:15:51.644Z,233.99
2023-05-05T11:16:51.676Z,226.86
2023-05-05T11:17:51.559Z,229.09
2023-05-05T11:18:51.489Z,220.51
2023-05-05T11:19:51.441Z,226.62
2023-05-05T11:20:51.443Z,211.42
2023-05-05T11:21:51.324Z,204.14
2023-05-05T11:22:51.240Z,214.38
2023-05-05T11:23:51.188Z,214.43
2023-05-05T11:24:51.126Z,215.51
2023-05-05T11:25:51.076Z,201.68
2023-05-05T11:26:51.025Z,203.97
2023-05-05T11:27:50.953Z,198.07
2023-05-05T11:28:51.113Z,188.53
2023-05-05T11:29:52.082Z,204.22
2023-05-05T11:30:50.813Z,210.51
2023-05-05T11:31:50.709Z,206.43
2023-05-05T11:32:50.661Z,209.07
2023-05-05T11:33:50.621Z,204.03
2023-05-05T11:34:50.544Z,198.30
2023-05-05T11:35:50.465Z,204.23
2023-05-05T11:36:50.566Z,199.78
2023-05-05T11:37:50.402Z,210.41
2023-05-05T11:38:50.341Z,206.87
2023-05-05T11:39:50.247Z,201.05
2023-05-05T11:40:50.209Z,202.80
2023-05-05T11:41:50.153Z,203.85
2023-05-05T11:42:50.061Z,203.68
2023-05-05T11:43:50.074Z,208.02
2023-05-05T11:44:50.030Z,208.10
2023-05-05T11:45:50.034Z,208.44
2023-05-05T11:46:49.982Z,217.30
2023-05-05T11:47:49.997Z,209.77
2023-05-05T11:48:49.925Z,208.11
2023-05-05T11:49:49.905Z,213.11
2023-05-05T11:50:49.913Z,215.59
2023-05-05T11:51:49.872Z,203.05
2023-05-05T11:52:49.906Z,199.67
2023-05-05T11:53:49.836Z,200.96
2023-05-05T11:54:49.785Z,195.51
2023-05-05T11:55:49.771Z,181.16
2023-05-05T11:56:49.764Z,176.01
2023-05-05T11:57:49.733Z,173.71
2023-05-05T11:58:49.709Z,170.76
2023-05-05T11:59:49.835Z,167.44
2023-05-05T12:00:49.666Z,166.34
2023-05-05T12:01:49.677Z,169.48
2023-05-05T12:02:49.660Z,169.31
2023-05-05T12:03:49.674Z,169.40
2023-05-05T12:04:49.670Z,164.17
2023-05-05T12:05:49.539Z,165.87
2023-05-05T12:06:49.517Z,167.42
2023-05-05T12:07:49.497Z,167.80
2023-05-05T12:08:49.450Z,163.82
2023-05-05T12:09:49.434Z,163.40
2023-05-05T12:10:49.396Z,157.64
2023-05-05T12:11:49.392Z,153.91
2023-05-05T12:12:49.375Z,151.65
2023-05-05T12:13:49.325Z,150.15
2023-05-05T12:14:49.309Z,148.77
2023-05-05T12:15:49.294Z,151.62
2023-05-05T12:16:49.277Z,154.85
2023-05-05T12:17:49.249Z,145.08
2023-05-05T12:18:49.195Z,140.26
2023-05-05T12:19:49.175Z,137.02
2023-05-05T12:20:49.172Z,136.94
2023-05-05T12:21:49.141Z,135.00
2023-05-05T12:22:49.133Z,127.56
2023-05-05T12:23:49.109Z,128.53
2023-05-05T12:24:49.063Z,124.23
2023-05-05T12:25:49.074Z,119.36
2023-05-05T12:26:49.091Z,121.63
2023-05-05T12:27:49.003Z,119.24
2023-05-05T12:28:49.022Z,114.40
2023-05-05T12:29:48.952Z,113.86
2023-05-05T12:30:48.971Z,113.23